Time;durP1;ratioP1;P1;durP2;ratioP2;P2;SDS_P1;SDS_P2;PMS_P1;PMS_P2;Temp;Humidity;BMP_temperature;BMP_pressure;BME280_temperature;BME280_humidity;BME280_pressure;Samples;Min_cycle;Max_cycle;Signal;HPM_P1;HPM_P2
2023/01/04 00:01:17;;;;;;;8.90;8.00;;;;;;;-1.29;100.00;97504.00;5070540;28;20829;-72
2023/01/04 00:03:44;;;;;;;7.70;7.10;;;;;;;-1.15;100.00;97502.00;5063212;28;20457;-74
2023/01/04 00:06:14;;;;;;;8.97;7.37;;;;;;;-1.15;100.00;97480.47;5091802;28;20797;-76
2023/01/04 00:08:41;;;;;;;9.03;8.13;;;;;;;-1.06;100.00;97495.50;5096731;28;20442;-74
2023/01/04 00:11:12;;;;;;;10.00;7.87;;;;;;;-1.06;100.00;97503.28;5073272;28;20478;-73
2023/01/04 00:13:39;;;;;;;7.63;6.93;;;;;;;-1.21;100.00;97472.53;5061671;28;20495;-72
2023/01/04 00:16:10;;;;;;;8.97;8.27;;;;;;;-1.10;100.00;97475.38;5063357;28;20447;-73
2023/01/04 00:18:37;;;;;;;9.17;8.43;;;;;;;-1.07;100.00;97488.72;5062033;28;20482;-73
2023/01/04 00:21:11;;;;;;;7.93;7.20;;;;;;;-1.17;100.00;97470.31;5042562;28;20966;-72
2023/01/04 00:23:38;;;;;;;10.10;7.90;;;;;;;-1.41;100.00;97427.97;5069867;28;20980;-72
2023/01/04 00:26:20;;;;;;;9.57;8.60;;;;;;;-1.19;100.00;97459.38;5069839;28;20455;-73
2023/01/04 00:28:46;;;;;;;9.73;8.73;;;;;;;-1.48;100.00;97435.81;5058017;28;20812;-72
2023/01/04 00:31:21;;;;;;;7.67;6.87;;;;;;;-1.50;100.00;97456.00;5061421;28;20529;-72
2023/01/04 00:33:49;;;;;;;8.10;7.27;;;;;;;-1.48;100.00;97458.38;5065444;28;20463;-72
2023/01/04 00:36:16;;;;;;;8.07;7.23;;;;;;;-1.89;100.00;97422.84;5062008;28;20425;-73
2023/01/04 00:38:42;;;;;;;7.90;7.10;;;;;;;-1.61;100.00;97458.56;5083424;28;20938;-72
2023/01/04 00:41:11;;;;;;;7.90;6.77;;;;;;;-1.45;100.00;97468.31;5080181;28;20956;-72
2023/01/04 00:43:58;;;;;;;8.73;7.47;;;;;;;-1.45;100.00;97439.81;5069307;28;20498;-72
2023/01/04 00:46:25;;;;;;;8.37;7.67;;;;;;;-1.21;100.00;97461.38;5069614;28;20813;-73
2023/01/04 00:48:52;;;;;;;7.03;6.33;;;;;;;-1.33;100.00;97443.22;5069434;28;20455;-72
2023/01/04 00:51:27;;;;;;;7.87;7.07;;;;;;;-1.27;100.00;97470.06;5057281;28;20448;-72
2023/01/04 00:53:54;;;;;;;8.37;7.57;;;;;;;-1.52;100.00;97455.44;5052809;28;20454;-72
2023/01/04 00:56:21;;;;;;;11.00;7.47;;;;;;;-1.52;100.00;97458.03;5068556;28;20940;-72
2023/01/04 00:58:47;;;;;;;8.20;7.43;;;;;;;-1.62;100.00;97454.38;5057031;28;20478;-72
2023/01/04 01:01:14;;;;;;;7.47;6.57;;;;;;;-1.68;100.00;97435.31;5055363;28;20433;-72
2023/01/04 01:03:43;;;;;;;8.17;7.10;;;;;;;-1.63;100.00;97443.22;5041066;28;20460;-72
2023/01/04 01:06:11;;;;;;;6.77;6.17;;;;;;;-1.70;100.00;97452.13;5055659;28;20421;-72
2023/01/04 01:08:38;;;;;;;7.00;6.40;;;;;;;-1.75;100.00;97426.03;5060769;28;20447;-72
2023/01/04 01:11:09;;;;;;;7.60;6.83;;;;;;;-1.69;100.00;97427.78;5064288;28;20435;-72
2023/01/04 01:13:37;;;;;;;11.10;5.97;;;;;;;-1.33;100.00;97465.78;5060100;28;20536;-72
2023/01/04 01:16:10;;;;;;;6.00;5.33;;;;;;;-1.32;100.00;97465.53;5045857;28;20536;-72
2023/01/04 01:18:38;;;;;;;7.43;6.27;;;;;;;-1.27;100.00;97442.31;5043084;28;20535;-72
2023/01/04 01:21:07;;;;;;;6.77;6.07;;;;;;;-1.27;100.00;97436.34;5055561;28;20537;-72
2023/01/04 01:23:33;;;;;;;7.80;6.33;;;;;;;-1.23;100.00;97456.41;5059391;28;20849;-72
2023/01/04 01:26:01;;;;;;;6.57;5.30;;;;;;;-1.24;100.00;97461.81;5066743;28;20476;-73
2023/01/04 01:28:28;;;;;;;6.40;5.80;;;;;;;-1.42;100.00;97428.19;5068983;28;20551;-72
2023/01/04 01:30:55;;;;;;;7.43;6.23;;;;;;;-1.35;100.00;97437.44;5052330;28;20436;-72
2023/01/04 01:33:22;;;;;;;7.10;6.47;;;;;;;-1.22;100.00;97458.00;5069393;28;20527;-73
2023/01/04 01:35:49;;;;;;;6.67;5.97;;;;;;;-1.16;100.00;97453.72;5055597;28;20942;-72
2023/01/04 01:38:15;;;;;;;6.90;5.67;;;;;;;-1.26;100.00;97440.50;5081528;28;20444;-73
2023/01/04 01:40:43;;;;;;;7.10;6.20;;;;;;;-1.58;100.00;97420.03;5071206;28;20432;-72
2023/01/04 01:43:22;;;;;;;5.90;5.40;;;;;;;-1.58;100.00;97448.56;5056490;28;20471;-72
2023/01/04 01:45:53;;;;;;;7.10;6.40;;;;;;;-1.70;100.00;97426.97;5056446;28;20486;-73
2023/01/04 01:48:25;;;;;;;6.47;5.87;;;;;;;-1.45;100.00;97447.56;5067274;28;20491;-72
2023/01/04 01:50:58;;;;;;;7.63;5.37;;;;;;;-1.64;100.00;97410.53;5061340;28;20818;-73
2023/01/04 01:53:27;;;;;;;6.93;5.77;;;;;;;-1.50;100.00;97421.50;5058875;28;20468;-73
2023/01/04 01:55:55;;;;;;;6.57;5.93;;;;;;;-1.18;100.00;97452.38;5082025;28;20439;-72
2023/01/04 01:58:28;;;;;;;10.10;7.23;;;;;;;-1.44;100.00;97418.03;5055913;28;20975;-73
2023/01/04 02:00:55;;;;;;;7.90;7.07;;;;;;;-1.27;100.00;97431.16;5080757;28;20912;-73
2023/01/04 02:03:26;;;;;;;7.83;7.03;;;;;;;-1.26;100.00;97433.50;5055874;28;20444;-74
2023/01/04 02:05:54;;;;;;;8.83;8.03;;;;;;;-1.46;100.00;97414.88;5060940;28;20409;-73
2023/01/04 02:08:23;;;;;;;9.40;7.47;;;;;;;-1.31;100.00;97424.84;5065737;28;20465;-73
2023/01/04 02:10:50;;;;;;;10.67;8.30;;;;;;;-1.41;100.00;97407.22;5049151;28;20444;-72
2023/01/04 02:13:22;;;;;;;13.10;8.17;;;;;;;-1.34;100.00;97427.84;5042187;28;20441;-73
2023/01/04 02:16:24;;;;;;;8.80;8.00;;;;;;;-1.50;100.00;97405.94;5073499;28;20409;-73
2023/01/04 02:19:05;;;;;;;7.60;6.80;;;;;;;-1.39;100.00;97420.75;5061781;28;20554;-73
2023/01/04 02:22:05;;;;;;;8.20;7.40;;;;;;;-1.49;100.00;97397.16;5040127;28;20888;-73
2023/01/04 02:24:50;;;;;;;8.27;7.00;;;;;;;-1.27;100.00;97420.78;5070879;28;20448;-73
2023/01/04 02:27:33;;;;;;;12.70;7.90;;;;;;;-1.27;100.00;97415.59;5070369;28;20468;-73
2023/01/04 02:30:09;;;;;;;9.20;6.63;;;;;;;-1.27;100.00;97400.81;5062464;28;20539;-73
2023/01/04 02:32:58;;;;;;;9.37;7.33;;;;;;;-1.50;100.00;97374.81;5058504;28;20472;-73
2023/01/04 02:35:38;;;;;;;15.67;8.80;;;;;;;-1.43;100.00;97398.88;5076416;28;20972;-73
2023/01/04 02:38:19;;;;;;;9.77;7.37;;;;;;;-1.44;100.00;97399.09;5082732;28;20460;-73
2023/01/04 02:40:52;;;;;;;15.37;8.97;;;;;;;-1.51;100.00;97394.00;5055428;28;20436;-73
2023/01/04 02:46:32;;;;;;;8.03;7.17;;;;;;;-1.72;100.00;97345.28;5071916;28;20826;-73
2023/01/04 02:51:46;;;;;;;11.63;8.90;;;;;;;-1.25;100.00;97393.59;5068171;28;20932;-73
2023/01/04 02:54:17;;;;;;;10.40;8.13;;;;;;;-1.42;100.00;97365.94;5061431;28;20461;-74
2023/01/04 02:56:58;;;;;;;16.10;8.57;;;;;;;-1.15;100.00;97390.44;5067157;28;20818;-73
2023/01/04 02:59:40;;;;;;;10.63;8.37;;;;;;;-1.25;100.00;97388.41;5066371;28;20451;-73
2023/01/04 03:08:59;;;;;;;12.70;7.80;;;;;;;-1.38;100.00;97367.84;5060124;28;20456;-74
2023/01/04 03:14:49;;;;;;;11.57;8.77;;;;;;;-1.17;100.00;97370.94;5057804;28;20828;-74
2023/01/04 03:17:20;;;;;;;11.13;8.83;;;;;;;-1.24;100.00;97355.47;5041747;28;20461;-73
2023/01/04 03:19:53;;;;;;;13.43;8.77;;;;;;;-1.20;100.00;97378.16;5059150;28;20425;-74
2023/01/04 03:36:59;;;;;;;16.30;10.87;;;;;;;-0.76;100.00;97337.06;5058271;28;20433;-74
2023/01/04 03:48:30;;;;;;;18.70;11.27;;;;;;;-0.58;100.00;97320.53;5071737;28;21068;-73
2023/01/04 03:51:21;;;;;;;19.07;11.77;;;;;;;-0.49;100.00;97313.16;5060028;28;20431;-74
2023/01/04 03:54:10;;;;;;;19.63;10.87;;;;;;;-0.91;100.00;97253.69;5073423;28;20823;-74
2023/01/04 03:56:41;;;;;;;17.50;11.03;;;;;;;-0.51;100.00;97289.25;5071574;28;20538;-74
2023/01/04 03:59:08;;;;;;;15.40;11.20;;;;;;;-0.58;100.00;97284.16;5063564;28;20428;-74
2023/01/04 04:01:35;;;;;;;13.80;11.17;;;;;;;-0.63;100.00;97284.09;5066541;28;20963;-74
2023/01/04 04:09:34;;;;;;;21.73;10.77;;;;;;;-0.85;100.00;97283.91;5056651;28;20970;-74
2023/01/04 04:12:00;;;;;;;25.20;12.73;;;;;;;-0.68;100.00;97307.34;5044227;28;20790;-74
2023/01/04 04:14:27;;;;;;;21.47;12.50;;;;;;;-0.79;100.00;97277.81;5046756;28;20487;-74
2023/01/04 04:16:54;;;;;;;25.90;14.20;;;;;;;-0.83;100.00;97271.47;5059035;28;20434;-74
2023/01/04 04:19:20;;;;;;;19.90;12.70;;;;;;;-0.45;100.00;97309.88;5057720;28;20421;-73
2023/01/04 04:21:47;;;;;;;30.80;12.93;;;;;;;-0.58;100.00;97266.00;5061824;28;20968;-74
2023/01/04 04:24:20;;;;;;;16.27;11.37;;;;;;;-0.70;100.00;97237.47;5063181;28;20487;-74
2023/01/04 04:26:46;;;;;;;25.87;10.90;;;;;;;-0.33;100.00;97258.66;5060244;28;20439;-74
2023/01/04 04:29:13;;;;;;;24.20;10.87;;;;;;;-0.46;100.00;97240.75;5072897;28;20469;-74
2023/01/04 04:31:39;;;;;;;23.03;11.10;;;;;;;-0.36;100.00;97247.97;5071021;28;20780;-74
2023/01/04 04:34:06;;;;;;;21.73;12.37;;;;;;;-0.10;100.00;97269.97;5057737;28;21373;-74
2023/01/04 04:36:33;;;;;;;18.30;9.80;;;;;;;0.04;100.00;97292.03;5059412;28;20444;-74
2023/01/04 04:38:59;;;;;;;12.93;10.10;;;;;;;-0.22;100.00;97254.44;5082057;28;20456;-74
2023/01/04 04:41:38;;;;;;;14.70;9.73;;;;;;;-0.34;100.00;97243.31;5070960;28;20519;-74
2023/01/04 04:44:16;;;;;;;13.17;9.30;;;;;;;-0.13;100.00;97284.22;5056223;28;20459;-74
2023/01/04 04:46:44;;;;;;;12.40;10.07;;;;;;;-0.23;100.00;97265.06;5055918;28;20433;-75
2023/01/04 04:49:15;;;;;;;10.93;9.60;;;;;;;-0.30;100.00;97247.00;5052737;28;20976;-74
2023/01/04 04:51:43;;;;;;;11.23;8.73;;;;;;;-0.07;100.00;97277.28;5069571;28;20424;-74
2023/01/04 04:54:13;;;;;;;10.37;8.17;;;;;;;-0.33;100.00;97224.88;5069359;28;20454;-75
2023/01/04 04:56:40;;;;;;;18.20;10.60;;;;;;;-0.51;100.00;97185.38;5069682;28;20795;-75
2023/01/04 04:59:07;;;;;;;15.00;9.73;;;;;;;-0.33;100.00;97206.72;5060454;28;20425;-75
2023/01/04 05:01:33;;;;;;;12.00;9.30;;;;;;;-0.11;100.00;97239.81;5046146;28;20969;-74
2023/01/04 05:04:00;;;;;;;15.00;10.70;;;;;;;-0.10;100.00;97236.97;5043218;28;20449;-74
2023/01/04 05:06:27;;;;;;;13.67;10.93;;;;;;;-0.05;100.00;97236.25;5057298;28;20456;-74
2023/01/04 05:08:54;;;;;;;11.20;8.27;;;;;;;0.01;100.00;97229.34;5059539;28;20496;-74
2023/01/04 05:12:58;;;;;;;11.40;7.90;;;;;;;-0.03;100.00;97216.00;5050510;28;20443;-74
2023/01/04 05:14:09;;;;;;;10.17;8.50;;;;;;;0.18;100.00;97250.94;5057033;28;20510;-74
2023/01/04 05:16:35;;;;;;;8.53;7.73;;;;;;;0.17;100.00;97242.34;5070481;28;20428;-74
2023/01/04 05:19:02;;;;;;;9.57;7.37;;;;;;;-0.18;100.00;97190.56;5070570;28;20420;-74
2023/01/04 05:21:29;;;;;;;11.63;7.23;;;;;;;-0.01;100.00;97206.94;5080920;28;20546;-74
2023/01/04 05:23:56;;;;;;;9.60;7.03;;;;;;;0.05;100.00;97230.44;5067697;28;20501;-74
2023/01/04 05:26:23;;;;;;;10.73;6.87;;;;;;;-0.21;100.00;97183.25;5063420;28;20424;-74
2023/01/04 05:28:49;;;;;;;10.30;7.17;;;;;;;0.14;100.00;97239.44;5072711;28;20452;-74
2023/01/04 05:31:20;;;;;;;7.67;6.23;;;;;;;0.02;100.00;97197.13;5046326;28;20439;-74
2023/01/04 05:33:46;;;;;;;6.37;5.60;;;;;;;0.04;100.00;97208.88;5056742;28;20886;-74
2023/01/04 05:36:13;;;;;;;9.00;5.50;;;;;;;0.20;100.00;97209.88;5063993;28;20467;-74
2023/01/04 05:38:40;;;;;;;9.67;6.90;;;;;;;-0.02;100.00;97181.19;5066431;28;20427;-74
2023/01/04 05:42:23;;;;;;;7.10;5.23;;;;;;;0.33;100.00;97235.56;5074093;28;20428;-74
2023/01/04 05:43:53;;;;;;;7.20;5.50;;;;;;;0.32;100.00;97231.38;5059093;28;20455;-76
2023/01/04 05:46:20;;;;;;;9.93;6.60;;;;;;;0.27;100.00;97223.50;5092372;28;20444;-78
2023/01/04 05:48:46;;;;;;;8.23;6.33;;;;;;;0.42;100.00;97231.53;5093799;28;20480;-77
2023/01/04 05:51:13;;;;;;;8.47;6.27;;;;;;;0.10;100.00;97196.72;5072819;28;20451;-75
2023/01/04 05:53:40;;;;;;;10.83;8.63;;;;;;;0.33;100.00;97219.94;5061030;28;20554;-74
2023/01/04 05:56:07;;;;;;;10.70;7.37;;;;;;;0.14;100.00;97203.03;5056628;28;20436;-74
2023/01/04 05:58:33;;;;;;;7.50;6.30;;;;;;;0.12;100.00;97195.44;5067275;28;20465;-75
2023/01/04 06:01:00;;;;;;;8.43;6.70;;;;;;;0.13;100.00;97180.63;5064730;28;20432;-73
2023/01/04 06:03:27;;;;;;;8.10;6.20;;;;;;;0.31;100.00;97203.00;5073771;28;20493;-74
2023/01/04 06:05:54;;;;;;;9.30;8.30;;;;;;;0.42;100.00;97208.13;5056035;28;20432;-73
2023/01/04 06:08:20;;;;;;;8.33;7.30;;;;;;;0.43;100.00;97201.88;5042534;28;20468;-73
2023/01/04 06:10:53;;;;;;;9.63;6.87;;;;;;;0.35;100.00;97194.47;5072625;28;20466;-74
2023/01/04 06:13:20;;;;;;;8.03;6.43;;;;;;;0.69;100.00;97233.47;5049684;28;20457;-73
2023/01/04 06:15:47;;;;;;;10.80;8.97;;;;;;;0.41;100.00;97184.97;5066025;28;20523;-74
2023/01/04 06:18:13;;;;;;;11.60;8.47;;;;;;;0.60;100.00;97204.44;5058891;28;20443;-74
2023/01/04 06:20:42;;;;;;;10.57;7.07;;;;;;;0.80;100.00;97222.94;5079236;28;20516;-73
2023/01/04 06:23:09;;;;;;;9.73;8.20;;;;;;;0.71;100.00;97213.97;5060354;28;20475;-73
2023/01/04 06:25:36;;;;;;;9.80;6.80;;;;;;;0.78;100.00;97222.38;5059191;28;20782;-74
2023/01/04 06:28:03;;;;;;;9.23;8.10;;;;;;;0.41;100.00;97175.34;5052076;28;20521;-73
2023/01/04 06:30:30;;;;;;;10.17;8.30;;;;;;;0.56;100.00;97187.75;5052605;28;20965;-74
2023/01/04 06:32:56;;;;;;;10.77;8.00;;;;;;;0.67;100.00;97196.47;5072013;28;21106;-74
2023/01/04 06:35:23;;;;;;;10.77;8.13;;;;;;;0.41;100.00;97141.53;5070626;28;20518;-74
2023/01/04 06:37:49;;;;;;;15.63;9.13;;;;;;;0.77;100.00;97186.19;5069813;28;20496;-74
2023/01/04 06:40:16;;;;;;;11.23;7.90;;;;;;;0.87;100.00;97197.50;5077947;28;20946;-74
2023/01/04 06:42:45;;;;;;;9.13;7.70;;;;;;;0.54;100.00;97135.97;5062869;28;20534;-74
2023/01/04 06:45:14;;;;;;;8.40;6.80;;;;;;;0.82;100.00;97174.03;5051776;28;20468;-74
2023/01/04 06:47:41;;;;;;;10.00;8.77;;;;;;;0.55;100.00;97126.34;5054885;28;20483;-74
2023/01/04 06:50:09;;;;;;;10.83;8.47;;;;;;;0.54;100.00;97122.97;5070100;28;20425;-73
2023/01/04 06:52:35;;;;;;;13.70;10.30;;;;;;;0.67;100.00;97150.44;5081436;28;20765;-73
2023/01/04 06:55:08;;;;;;;22.00;14.90;;;;;;;0.76;100.00;97146.34;5068975;28;20441;-74
2023/01/04 06:57:34;;;;;;;11.80;8.20;;;;;;;0.80;100.00;97151.84;5063186;28;20831;-74
2023/01/04 07:00:02;;;;;;;12.83;8.30;;;;;;;1.01;100.00;97176.31;5041576;28;20439;-74
2023/01/04 07:02:29;;;;;;;8.53;7.33;;;;;;;0.70;100.00;97118.72;5043638;28;20465;-74
2023/01/04 07:04:57;;;;;;;9.67;6.77;;;;;;;1.03;100.00;97167.22;5048400;28;20464;-73
2023/01/04 07:07:24;;;;;;;9.63;7.90;;;;;;;0.84;100.00;97137.34;5030895;28;20437;-73
2023/01/04 07:09:50;;;;;;;13.33;10.37;;;;;;;1.02;100.00;97160.44;5059304;28;20448;-74
2023/01/04 07:12:17;;;;;;;10.17;7.67;;;;;;;0.90;100.00;97136.38;5071744;28;20976;-74
2023/01/04 07:14:47;;;;;;;10.40;8.90;;;;;;;0.86;100.00;97128.25;5073419;28;20951;-74
2023/01/04 07:17:13;;;;;;;11.70;9.27;;;;;;;0.96;100.00;97132.00;5071651;28;20523;-74
2023/01/04 07:19:40;;;;;;;10.40;8.17;;;;;;;1.17;100.00;97167.63;5057709;28;20516;-74
2023/01/04 07:22:07;;;;;;;11.10;9.07;;;;;;;1.08;100.00;97145.69;5041871;28;20922;-74
2023/01/04 07:24:33;;;;;;;12.77;10.50;;;;;;;1.29;100.00;97165.66;5064737;28;20449;-73
2023/01/04 07:27:00;;;;;;;12.47;8.73;;;;;;;1.03;100.00;97106.56;5064758;28;20974;-74
2023/01/04 07:29:27;;;;;;;11.60;8.20;;;;;;;1.08;100.00;97109.22;5072263;28;20509;-74
2023/01/04 07:31:54;;;;;;;9.10;7.23;;;;;;;1.37;100.00;97149.59;5062240;28;20474;-74
2023/01/04 07:34:23;;;;;;;9.00;7.03;;;;;;;1.33;100.00;97124.28;5072553;28;20453;-74
2023/01/04 07:36:50;;;;;;;10.50;7.60;;;;;;;1.10;100.00;97097.53;5071520;28;20524;-74
2023/01/04 07:39:17;;;;;;;11.13;9.13;;;;;;;1.25;100.00;97117.72;5083431;28;20514;-74
2023/01/04 07:41:45;;;;;;;14.80;9.30;;;;;;;1.15;100.00;97100.16;5069675;28;20440;-74
2023/01/04 07:44:14;;;;;;;14.00;11.50;;;;;;;1.41;100.00;97147.28;5042966;28;20463;-74
2023/01/04 07:46:41;;;;;;;11.57;7.90;;;;;;;1.38;100.00;97124.34;5052541;28;20429;-74
2023/01/04 07:49:13;;;;;;;10.80;9.00;;;;;;;1.58;100.00;97155.78;5058692;28;20518;-74
2023/01/04 07:51:45;;;;;;;11.00;9.27;;;;;;;1.59;100.00;97161.78;5057039;28;20929;-74
2023/01/04 07:54:13;;;;;;;12.13;8.00;;;;;;;1.64;100.00;97167.81;5044517;28;20465;-73
2023/01/04 07:56:40;;;;;;;11.47;7.90;;;;;;;1.36;100.00;97114.19;5064312;28;20452;-73
2023/01/04 07:59:08;;;;;;;9.80;8.00;;;;;;;1.68;100.00;97161.09;5043929;28;20432;-74
2023/01/04 08:01:37;;;;;;;9.23;7.80;;;;;;;1.59;100.00;97165.16;5041496;28;20978;-74
2023/01/04 08:04:05;;;;;;;12.30;9.87;;;;;;;1.65;100.00;97156.38;5079260;28;20444;-74
2023/01/04 08:06:33;;;;;;;12.17;7.67;;;;;;;1.28;100.00;97093.78;5071578;28;20855;-74
2023/01/04 08:09:01;;;;;;;17.77;10.50;;;;;;;1.27;100.00;97112.25;5061893;28;20467;-73
2023/01/04 08:11:28;;;;;;;11.73;7.90;;;;;;;1.70;100.00;97148.56;5064490;28;20429;-74
2023/01/04 08:13:55;;;;;;;14.33;12.83;;;;;;;1.57;100.00;97127.34;5062105;28;20472;-73
2023/01/04 08:16:30;;;;;;;12.90;9.40;;;;;;;1.44;100.00;97111.09;5064569;28;20461;-74
2023/01/04 08:18:59;;;;;;;25.97;23.00;;;;;;;1.45;100.00;97117.09;5064829;28;20416;-73
2023/01/04 08:21:28;;;;;;;40.37;32.47;;;;;;;1.80;100.00;97155.69;5056644;28;20867;-73
2023/01/04 08:23:54;;;;;;;12.53;10.27;;;;;;;1.60;100.00;97130.25;5056374;28;20441;-73
2023/01/04 08:26:21;;;;;;;30.63;26.40;;;;;;;1.86;100.00;97152.09;5062370;28;20524;-73
2023/01/04 08:28:49;;;;;;;28.73;22.53;;;;;;;1.79;100.00;97146.31;5046299;28;20466;-73
2023/01/04 08:31:20;;;;;;;50.63;36.47;;;;;;;1.77;100.00;97130.94;5041182;28;20794;-73
2023/01/04 08:33:48;;;;;;;16.20;11.10;;;;;;;1.95;100.00;97147.19;5057374;28;20819;-73
2023/01/04 08:36:18;;;;;;;355.93;210.70;;;;;;;2.01;100.00;97141.00;5061241;28;20476;-73
2023/01/04 08:38:57;;;;;;;30.53;19.33;;;;;;;1.17;100.00;97035.59;5067229;28;20485;-74
2023/01/04 08:41:28;;;;;;;14.63;10.53;;;;;;;1.85;100.00;97108.00;5057788;28;20833;-73
2023/01/04 08:44:20;;;;;;;14.03;10.90;;;;;;;2.03;100.00;97142.31;5058336;28;20847;-73
2023/01/04 08:46:49;;;;;;;16.07;9.80;;;;;;;2.10;100.00;97141.31;5069490;28;20575;-73
2023/01/04 08:49:16;;;;;;;10.40;8.17;;;;;;;1.86;100.00;97092.13;5049408;28;21020;-73
2023/01/04 08:51:44;;;;;;;17.77;11.50;;;;;;;1.87;100.00;97080.69;5056233;28;20890;-73
2023/01/04 08:54:11;;;;;;;13.40;9.37;;;;;;;2.22;100.00;97124.44;5052749;28;20504;-73
2023/01/04 08:56:38;;;;;;;11.97;7.67;;;;;;;2.15;100.00;97099.63;5069478;28;20432;-73
2023/01/04 08:59:06;;;;;;;12.30;9.37;;;;;;;2.22;100.00;97113.22;5059098;28;20432;-73
2023/01/04 09:01:34;;;;;;;12.33;9.43;;;;;;;2.28;100.00;97107.78;5066289;28;20505;-73
2023/01/04 09:04:01;;;;;;;12.80;10.23;;;;;;;2.44;100.00;97098.19;5069469;28;20543;-73
2023/01/04 09:06:28;;;;;;;12.33;9.17;;;;;;;2.25;100.00;97056.09;5037970;28;20893;-73
2023/01/04 09:08:56;;;;;;;10.23;7.83;;;;;;;2.31;100.00;97046.47;5059971;28;20487;-72
2023/01/04 09:11:23;;;;;;;12.03;9.20;;;;;;;2.46;100.00;97077.84;5069244;28;20437;-72
2023/01/04 09:13:55;;;;;;;10.67;9.53;;;;;;;2.36;100.00;97049.09;5070599;28;20482;-72
2023/01/04 09:16:32;;;;;;;14.07;9.40;;;;;;;2.26;100.00;97028.97;5069339;28;20435;-72
2023/01/04 09:18:58;;;;;;;12.17;9.07;;;;;;;2.34;100.00;97040.75;5039092;28;20919;-72
2023/01/04 09:21:25;;;;;;;15.17;10.50;;;;;;;2.42;100.00;97036.88;5058802;28;20536;-72
2023/01/04 09:23:52;;;;;;;16.77;11.50;;;;;;;2.47;100.00;97042.09;5062825;28;20490;-72
2023/01/04 09:26:22;;;;;;;16.83;11.90;;;;;;;2.32;100.00;97006.28;5069324;28;20479;-72
2023/01/04 09:28:51;;;;;;;13.67;9.70;;;;;;;2.64;100.00;97066.16;5068859;28;20480;-72
2023/01/04 09:31:21;;;;;;;13.63;9.23;;;;;;;2.55;100.00;97052.03;5052646;28;20439;-72
2023/01/04 09:33:47;;;;;;;13.00;9.43;;;;;;;2.46;100.00;97040.53;5070265;28;20505;-73
2023/01/04 09:36:34;;;;;;;15.23;10.90;;;;;;;2.44;100.00;97025.13;5069061;28;21045;-73
2023/01/04 09:39:01;;;;;;;14.00;11.30;;;;;;;2.61;100.00;97028.28;5082827;28;20478;-72
2023/01/04 09:41:42;;;;;;;21.40;12.40;;;;;;;2.74;100.00;97045.28;5052350;28;20801;-72
2023/01/04 09:44:08;;;;;;;16.67;10.60;;;;;;;2.82;100.00;97036.97;5057071;28;20505;-72
2023/01/04 09:46:52;;;;;;;19.13;13.50;;;;;;;2.64;100.00;97006.09;5069848;28;20519;-72
2023/01/04 09:49:29;;;;;;;22.80;11.53;;;;;;;2.74;100.00;97024.41;5060021;28;20471;-69
2023/01/04 09:52:09;;;;;;;16.30;11.83;;;;;;;2.83;100.00;97042.97;5071391;28;20463;-74
2023/01/04 09:54:49;;;;;;;21.20;12.10;;;;;;;2.87;100.00;97036.19;5055479;28;20507;-74
2023/01/04 09:57:22;;;;;;;20.73;12.80;;;;;;;2.72;100.00;97029.09;5080340;28;20424;-74
2023/01/04 10:00:01;;;;;;;21.03;14.00;;;;;;;2.82;100.00;97026.53;5052112;28;20425;-74
2023/01/04 10:02:44;;;;;;;21.10;14.07;;;;;;;2.89;100.00;97007.97;5056837;28;20511;-74
2023/01/04 10:05:18;;;;;;;17.47;12.33;;;;;;;2.90;100.00;96992.06;5056524;28;20909;-70
2023/01/04 10:07:45;;;;;;;23.17;14.43;;;;;;;3.08;100.00;97010.88;5068650;28;20444;-70
2023/01/04 10:10:20;;;;;;;19.60;11.27;;;;;;;3.04;100.00;96992.31;5069267;28;20452;-70
2023/01/04 10:12:57;;;;;;;16.47;10.90;;;;;;;3.09;100.00;97012.44;5072488;28;20734;-70
2023/01/04 10:15:31;;;;;;;23.93;13.10;;;;;;;3.11;100.00;97011.13;5073736;28;20435;-70
2023/01/04 10:18:10;;;;;;;15.00;10.67;;;;;;;3.12;100.00;97014.53;5073595;28;20424;-70
2023/01/04 10:21:12;;;;;;;21.90;12.53;;;;;;;3.08;100.00;97003.84;5073739;28;20850;-70
2023/01/04 10:24:24;;;;;;;10.63;8.73;;;;;;;3.18;100.00;96995.19;5073589;28;20538;-70
2023/01/04 10:27:17;;;;;;;20.10;12.20;;;;;;;3.24;100.00;96983.72;5016054;28;20595;-70
2023/01/04 10:30:03;;;;;;;23.93;15.67;;;;;;;3.13;100.00;96959.41;5060634;28;20955;-70
2023/01/04 10:32:42;;;;;;;22.40;16.80;;;;;;;3.36;100.00;96992.06;5055779;28;20929;-71
2023/01/04 10:35:26;;;;;;;17.30;10.70;;;;;;;3.45;100.00;96987.84;5072229;28;20526;-70
2023/01/04 10:37:59;;;;;;;15.57;9.93;;;;;;;3.44;100.00;96993.34;5061573;28;20440;-71
2023/01/04 10:40:34;;;;;;;11.77;9.00;;;;;;;3.45;100.00;96974.78;5072119;28;20435;-71
2023/01/04 10:43:30;;;;;;;14.37;9.93;;;;;;;3.55;100.00;96974.00;5072268;28;20416;-71
2023/01/04 10:46:24;;;;;;;11.70;9.10;;;;;;;3.55;100.00;96974.00;5033055;28;20441;-71
2023/01/04 10:48:59;;;;;;;18.10;11.20;;;;;;;3.38;100.00;96947.38;5071580;28;20481;-71
2023/01/04 10:51:34;;;;;;;10.87;8.10;;;;;;;3.23;100.00;96929.88;5055507;28;20818;-71
2023/01/04 10:54:39;;;;;;;21.40;12.80;;;;;;;3.62;100.00;96952.81;5072043;28;20479;-71
2023/01/04 10:57:24;;;;;;;18.77;14.73;;;;;;;3.60;100.00;96954.88;5052174;28;20429;-71
2023/01/04 11:00:01;;;;;;;11.10;8.20;;;;;;;3.72;100.00;96940.47;5069045;28;20473;-71
2023/01/04 11:02:40;;;;;;;14.17;10.43;;;;;;;3.81;100.00;96938.88;5072576;28;20809;-71
2023/01/04 11:05:31;;;;;;;12.10;8.87;;;;;;;3.82;100.00;96934.44;5058493;28;20580;-71
2023/01/04 11:08:05;;;;;;;10.07;8.27;;;;;;;3.92;100.00;96936.22;5055561;28;20910;-71
2023/01/04 11:10:39;;;;;;;8.30;5.60;;;;;;;3.79;100.00;96906.97;5073190;28;20468;-71
2023/01/04 11:13:06;;;;;;;8.57;6.03;;;;;;;4.03;100.00;96933.31;5072352;28;20438;-71
2023/01/04 11:15:34;;;;;;;6.90;5.17;;;;;;;3.96;100.00;96900.63;5073824;28;20896;-71
2023/01/04 11:18:04;;;;;;;7.37;6.50;;;;;;;4.14;100.00;96924.34;5055468;28;20433;-70
2023/01/04 11:20:31;;;;;;;7.10;5.47;;;;;;;4.15;100.00;96904.22;5072367;28;20460;-71
2023/01/04 11:23:13;;;;;;;6.07;5.40;;;;;;;3.94;100.00;96879.97;5051776;28;20437;-71
2023/01/04 11:25:51;;;;;;;6.73;4.90;;;;;;;4.14;100.00;96892.97;5068809;28;20444;-71
2023/01/04 11:28:30;;;;;;;6.73;5.80;;;;;;;4.32;100.00;96912.47;5074857;28;20946;-71
2023/01/04 11:31:11;;;;;;;7.10;4.80;;;;;;;4.31;100.00;96910.91;5082832;28;20460;-72
2023/01/04 11:33:57;;;;;;;7.90;5.07;;;;;;;4.27;100.00;96883.69;5096111;28;20428;-72
2023/01/04 11:36:29;;;;;;;6.37;5.07;;;;;;;4.40;100.00;96901.41;5094409;28;20447;-71
2023/01/04 11:38:57;;;;;;;5.63;3.70;;;;;;;4.47;100.00;96905.56;5079525;28;20463;-71
2023/01/04 11:41:25;;;;;;;5.37;4.60;;;;;;;4.42;100.00;96894.09;5071618;28;20515;-70
2023/01/04 11:43:57;;;;;;;5.73;4.50;;;;;;;4.52;100.00;96908.94;5071308;28;20546;-71
2023/01/04 11:46:25;;;;;;;4.70;4.20;;;;;;;4.48;100.00;96896.66;5072886;28;20436;-71
2023/01/04 11:48:52;;;;;;;5.07;4.57;;;;;;;4.34;100.00;96865.88;5071725;28;20436;-71
2023/01/04 11:51:28;;;;;;;5.10;3.60;;;;;;;4.59;100.00;96896.31;5065627;28;20511;-71
2023/01/04 11:53:57;;;;;;;5.73;3.97;;;;;;;4.63;100.00;96897.34;5051077;28;20436;-72
2023/01/04 11:56:28;;;;;;;5.13;3.10;;;;;;;4.68;100.00;96889.47;5065576;28;20562;-71
2023/01/04 11:59:12;;;;;;;4.20;3.80;;;;;;;4.74;100.00;96885.72;5054988;28;20464;-71
2023/01/04 12:01:50;;;;;;;6.57;4.33;;;;;;;4.80;100.00;96880.44;5071268;28;20431;-71
2023/01/04 12:04:22;;;;;;;4.37;3.90;;;;;;;4.84;100.00;96873.63;5071049;28;20482;-71
2023/01/04 12:06:54;;;;;;;7.60;3.70;;;;;;;4.85;100.00;96872.56;5071107;28;21012;-71
2023/01/04 12:09:21;;;;;;;5.57;3.57;;;;;;;4.83;100.00;96857.13;5070953;28;20417;-71
2023/01/04 12:11:55;;;;;;;4.90;3.53;;;;;;;4.77;100.00;96837.25;5054568;28;20562;-71
2023/01/04 12:14:26;;;;;;;4.17;3.63;;;;;;;4.96;100.00;96860.94;5070567;28;20895;-70
2023/01/04 12:17:00;;;;;;;3.13;2.80;;;;;;;4.97;100.00;96870.34;5070905;28;20471;-73
2023/01/04 12:19:27;;;;;;;4.27;3.77;;;;;;;5.00;100.00;96859.31;5070608;28;20474;-73
2023/01/04 12:21:57;;;;;;;3.80;3.20;;;;;;;4.79;100.00;96824.66;5053873;28;20546;-73
2023/01/04 12:24:28;;;;;;;6.37;2.90;;;;;;;4.99;100.00;96847.25;5071533;28;20647;-73
2023/01/04 12:26:56;;;;;;;4.50;2.70;;;;;;;4.85;100.00;96820.16;5070411;28;20535;-73
2023/01/04 12:29:22;;;;;;;3.63;2.93;;;;;;;5.00;100.00;96844.38;5053452;28;20932;-72